Time;durP1;ratioP1;P1;durP2;ratioP2;P2;SDS_P1;SDS_P2;PMS_P1;PMS_P2;Temp;Humidity;BMP_temperature;BMP_pressure;BME280_temperature;BME280_humidity;BME280_pressure;Samples;Min_cycle;Max_cycle;Signal;HPM_P1;HPM_P2
2023/11/05 00:00:06;;;;;;;;;;;9.60;99.90;;;8.97;100.00;94077.41;4960873;28;1496;-73
2023/11/05 00:02:41;;;;;;;;;;;9.60;99.90;;;8.89;100.00;94087.63;4970967;28;1942;-73
2023/11/05 00:05:08;;;;;;;;;;;9.50;99.90;;;9.09;100.00;94058.16;4965671;28;1434;-73
2023/11/05 00:07:38;;;;;;;;;;;9.60;99.90;;;8.99;100.00;94058.19;4966984;28;1858;-73
2023/11/05 00:10:06;;;;;;;;;;;9.60;99.90;;;8.99;100.00;94040.09;4962496;28;1416;-73
2023/11/05 00:12:33;;;;;;;;;;;9.60;99.90;;;9.09;100.00;94052.16;4952177;28;1583;-73
2023/11/05 00:15:00;;;;;;;;;;;9.60;99.90;;;9.18;100.00;94057.28;4965437;28;1435;-74
2023/11/05 00:17:27;;;;;;;;;;;9.60;99.90;;;9.08;100.00;94069.47;4961002;28;1505;-74
2023/11/05 00:19:54;;;;;;;;;;;9.70;99.90;;;9.08;100.00;94019.50;4961255;28;1400;-74
2023/11/05 00:22:21;;;;;;;;;;;9.80;99.90;;;9.13;100.00;94022.47;4964245;28;2015;-73
2023/11/05 00:24:48;;;;;;;;;;;9.80;99.90;;;9.16;100.00;94022.19;4965257;28;1384;-74
2023/11/05 00:27:15;;;;;;;;;;;9.70;99.90;;;9.10;100.00;94031.34;4966162;28;1745;-73
2023/11/05 00:29:42;;;;;;;;;;;9.80;99.90;;;9.14;100.00;94017.13;4964225;28;1497;-74
2023/11/05 00:32:11;;;;;;;;;;;9.80;99.90;;;9.08;100.00;94024.69;4963862;28;1497;-74
2023/11/05 00:34:38;;;;;;;;;;;9.80;99.90;;;8.99;100.00;94029.75;4966204;28;1445;-74
2023/11/05 00:37:05;;;;;;;;;;;9.70;99.90;;;8.99;100.00;94037.50;4963683;28;1486;-74
2023/11/05 00:39:32;;;;;;;;;;;9.60;99.90;;;8.82;100.00;94030.47;4965274;28;1652;-75
2023/11/05 00:41:59;;;;;;;;;;;9.60;99.90;;;8.80;100.00;94040.16;4964424;28;1623;-75
2023/11/05 00:44:29;;;;;;;;;;;9.50;99.90;;;8.75;100.00;94039.75;4966935;28;1906;-75
2023/11/05 00:46:56;;;;;;;;;;;9.40;99.90;;;8.68;100.00;94042.09;4966495;28;1813;-74
2023/11/05 00:49:23;;;;;;;;;;;9.40;99.90;;;8.62;100.00;94031.50;4965428;28;1505;-75
2023/11/05 00:51:50;;;;;;;;;;;9.30;99.90;;;8.64;100.00;94030.41;4977907;28;1557;-75
2023/11/05 00:54:17;;;;;;;;;;;9.30;99.90;;;8.59;100.00;94043.75;4959989;28;1410;-75
2023/11/05 00:56:44;;;;;;;;;;;9.20;99.90;;;8.58;100.00;94029.19;4961604;28;1542;-74
2023/11/05 00:59:11;;;;;;;;;;;9.20;99.90;;;8.51;100.00;94032.50;4964344;28;1619;-74
2023/11/05 01:01:38;;;;;;;;;;;9.20;99.90;;;8.54;100.00;94020.09;4962647;28;1691;-74
2023/11/05 01:04:05;;;;;;;;;;;9.20;99.90;;;8.55;100.00;94028.66;4963709;28;1915;-72
2023/11/05 01:06:32;;;;;;;;;;;9.20;99.90;;;8.54;100.00;94017.50;4961416;28;1621;-74
2023/11/05 01:08:59;;;;;;;;;;;9.20;99.90;;;8.55;100.00;94016.56;4961776;28;1478;-74
2023/11/05 01:11:26;;;;;;;;;;;9.20;99.90;;;8.62;100.00;94018.56;4964927;28;1465;-73
2023/11/05 01:13:53;;;;;;;;;;;9.20;99.90;;;8.64;100.00;94020.06;4963743;28;1910;-73
2023/11/05 01:16:21;;;;;;;;;;;9.20;99.90;;;8.60;100.00;94018.72;4966042;28;1461;-73
2023/11/05 01:18:48;;;;;;;;;;;9.30;99.90;;;8.64;100.00;94014.09;4966840;28;1890;-74
2023/11/05 01:21:15;;;;;;;;;;;9.20;99.90;;;8.68;100.00;93997.34;4965791;28;1570;-73
2023/11/05 01:23:42;;;;;;;;;;;9.30;99.90;;;8.68;100.00;94005.91;4978092;28;1910;-73
2023/11/05 01:26:09;;;;;;;;;;;9.30;99.90;;;8.81;100.00;93991.84;4967076;28;1786;-73
2023/11/05 01:28:36;;;;;;;;;;;9.40;99.90;;;8.84;100.00;93996.72;4968568;28;1618;-74
2023/11/05 01:31:03;;;;;;;;;;;9.40;99.90;;;8.76;100.00;93984.53;4982869;28;1584;-74
2023/11/05 01:33:31;;;;;;;;;;;9.40;99.90;;;8.91;100.00;93985.66;4980399;28;1431;-73
2023/11/05 01:35:58;;;;;;;;;;;9.50;99.90;;;8.90;100.00;93973.69;4985331;28;1552;-73
2023/11/05 01:38:25;;;;;;;;;;;9.50;99.90;;;8.89;100.00;93986.75;4968612;28;1664;-73
2023/11/05 01:40:53;;;;;;;;;;;9.50;99.90;;;8.97;100.00;93967.00;4981055;28;2020;-73
2023/11/05 01:43:22;;;;;;;;;;;9.50;99.90;;;8.88;100.00;93978.19;4967583;28;1989;-73
2023/11/05 01:45:49;;;;;;;;;;;9.50;99.90;;;8.97;100.00;93979.13;4960725;28;1516;-73
2023/11/05 01:48:16;;;;;;;;;;;9.50;99.90;;;8.96;100.00;93967.13;4983644;28;1525;-73
2023/11/05 01:50:44;;;;;;;;;;;9.50;99.90;;;8.91;100.00;93977.09;4951522;28;1903;-73
2023/11/05 01:53:11;;;;;;;;;;;9.50;99.90;;;8.81;100.00;93960.81;4984572;28;1532;-74
2023/11/05 01:55:38;;;;;;;;;;;9.50;99.90;;;8.87;100.00;93968.00;4954408;28;1419;-74
2023/11/05 01:58:05;;;;;;;;;;;9.50;99.90;;;8.75;100.00;93967.38;4969332;28;1333;-74
2023/11/05 02:00:33;;;;;;;;;;;9.50;99.90;;;8.62;100.00;93969.47;4969130;28;1469;-74
2023/11/05 02:03:01;;;;;;;;;;;9.30;99.90;;;8.62;100.00;93977.22;4969044;28;2001;-73
2023/11/05 02:05:28;;;;;;;;;;;9.30;99.90;;;8.57;100.00;93982.81;4985523;28;1704;-75
2023/11/05 02:07:55;;;;;;;;;;;9.20;99.90;;;8.45;100.00;93987.34;4969713;28;1560;-74
2023/11/05 02:10:21;;;;;;;;;;;9.10;99.90;;;8.41;100.00;93985.19;4970431;28;1558;-75
2023/11/05 02:12:56;;;;;;;;;;;9.10;99.90;;;8.37;100.00;93962.19;4969081;28;1536;-74
2023/11/05 02:15:24;;;;;;;;;;;9.10;99.90;;;8.41;100.00;93969.66;4953499;28;1562;-75
2023/11/05 02:17:51;;;;;;;;;;;9.00;99.90;;;8.36;100.00;93967.47;4969067;28;1924;-75
2023/11/05 02:20:19;;;;;;;;;;;9.00;99.90;;;8.40;100.00;93968.03;4968202;28;1578;-75
2023/11/05 02:22:48;;;;;;;;;;;9.00;99.90;;;8.38;100.00;93956.03;4965280;28;1541;-74
2023/11/05 02:25:18;;;;;;;;;;;9.00;99.90;;;8.40;100.00;93960.28;4967080;28;1938;-74
2023/11/05 02:27:50;;;;;;;;;;;9.00;99.90;;;8.37;100.00;93957.00;4967314;28;1848;-74
2023/11/05 02:30:18;;;;;;;;;;;9.00;99.90;;;8.35;100.00;93956.34;4968630;28;1592;-74
2023/11/05 02:32:46;;;;;;;;;;;9.00;99.90;;;8.33;100.00;93945.31;4966819;28;1595;-74
2023/11/05 02:35:13;;;;;;;;;;;9.00;99.90;;;8.27;100.00;93963.97;4968569;28;1554;-74
2023/11/05 02:37:40;;;;;;;;;;;8.90;99.90;;;8.31;100.00;93954.16;4966715;28;1588;-74
2023/11/05 02:40:09;;;;;;;;;;;8.90;99.90;;;8.42;100.00;93945.47;4969224;28;1924;-74
2023/11/05 02:42:39;;;;;;;;;;;8.90;99.90;;;8.29;100.00;93930.25;4982792;28;1458;-74
2023/11/05 02:45:06;;;;;;;;;;;8.90;99.90;;;8.30;100.00;93940.44;4970100;28;2042;-74
2023/11/05 02:47:33;;;;;;;;;;;8.90;99.90;;;8.33;100.00;93926.44;4947785;28;1634;-74
2023/11/05 02:50:02;;;;;;;;;;;8.90;99.90;;;8.35;100.00;93930.50;4953758;28;1682;-73
2023/11/05 02:52:32;;;;;;;;;;;8.90;99.90;;;8.39;100.00;93923.25;4969172;28;1538;-74
2023/11/05 02:55:00;;;;;;;;;;;8.90;99.90;;;8.38;100.00;93926.81;4968454;28;1601;-75
2023/11/05 02:57:28;;;;;;;;;;;8.90;99.90;;;8.32;100.00;93914.44;4966239;28;1622;-74
2023/11/05 02:59:55;;;;;;;;;;;8.90;99.90;;;8.31;100.00;93918.81;4967865;28;1534;-75
2023/11/05 03:02:22;;;;;;;;;;;8.90;99.90;;;8.32;100.00;93914.44;4968083;28;1550;-75
2023/11/05 03:04:49;;;;;;;;;;;8.90;99.90;;;8.29;100.00;93902.63;4967470;28;1984;-75
2023/11/05 03:07:16;;;;;;;;;;;8.90;99.90;;;8.27;100.00;93908.91;4967199;28;1511;-75
2023/11/05 03:09:44;;;;;;;;;;;8.90;99.90;;;8.28;100.00;93910.50;4964147;28;1542;-75
2023/11/05 03:12:11;;;;;;;;;;;8.90;99.90;;;8.27;100.00;93907.13;4968065;28;1269;-75
2023/11/05 03:14:39;;;;;;;;;;;8.80;99.90;;;8.26;100.00;93895.16;4968112;28;1672;-74
2023/11/05 03:17:06;;;;;;;;;;;8.80;99.90;;;8.25;100.00;93905.63;4969358;28;1608;-74
2023/11/05 03:19:34;;;;;;;;;;;8.80;99.90;;;8.29;100.00;93887.13;4950609;28;1810;-75
2023/11/05 03:22:01;;;;;;;;;;;8.80;99.90;;;8.25;100.00;93897.88;4968388;28;1614;-75
2023/11/05 03:24:28;;;;;;;;;;;8.80;99.90;;;8.27;100.00;93896.78;4968914;28;1982;-75
2023/11/05 03:26:56;;;;;;;;;;;8.80;99.90;;;8.30;100.00;93882.75;4968601;28;1600;-74
2023/11/05 03:29:23;;;;;;;;;;;8.80;99.90;;;8.30;100.00;93880.19;4969074;28;1637;-74
2023/11/05 03:31:51;;;;;;;;;;;8.80;99.90;;;8.33;100.00;93870.38;4966982;28;1540;-74
2023/11/05 03:34:18;;;;;;;;;;;8.90;99.90;;;8.32;100.00;93897.16;4967409;28;1565;-74
2023/11/05 03:36:45;;;;;;;;;;;8.90;99.90;;;8.43;100.00;93896.22;4953679;28;1377;-74
2023/11/05 03:39:13;;;;;;;;;;;8.90;99.90;;;8.47;100.00;93912.25;4984369;28;1623;-73
2023/11/05 03:41:40;;;;;;;;;;;9.00;99.90;;;8.44;100.00;93902.19;4967925;28;1582;-74
2023/11/05 03:44:07;;;;;;;;;;;9.00;99.90;;;8.47;100.00;93899.34;4965339;28;1906;-74
2023/11/05 03:46:34;;;;;;;;;;;9.00;99.90;;;8.49;100.00;93911.16;4962364;28;1704;-74
2023/11/05 03:49:01;;;;;;;;;;;9.00;99.90;;;8.55;100.00;93913.19;4982854;28;1485;-74
2023/11/05 03:51:28;;;;;;;;;;;9.00;99.90;;;8.54;100.00;93901.19;4966694;28;1474;-74
2023/11/05 03:53:55;;;;;;;;;;;9.10;99.90;;;8.51;100.00;93901.50;4965978;28;1454;-74
2023/11/05 03:56:22;;;;;;;;;;;9.10;99.90;;;8.59;100.00;93895.59;4964635;28;1767;-74
2023/11/05 03:58:49;;;;;;;;;;;9.10;99.90;;;8.55;100.00;93902.00;4966303;28;1203;-73
2023/11/05 04:01:19;;;;;;;;;;;9.10;99.90;;;8.51;100.00;93900.69;4965555;28;1576;-75
2023/11/05 04:03:46;;;;;;;;;;;9.10;99.90;;;8.56;100.00;93911.41;4966309;28;1922;-74
2023/11/05 04:06:16;;;;;;;;;;;9.10;99.90;;;8.61;100.00;93898.03;4968292;28;1893;-73
2023/11/05 04:08:46;;;;;;;;;;;9.10;99.90;;;8.66;100.00;93890.66;4966080;28;1413;-74
2023/11/05 04:11:14;;;;;;;;;;;9.20;99.90;;;8.71;100.00;93901.38;4967673;28;1448;-73
2023/11/05 04:13:45;;;;;;;;;;;9.20;99.90;;;8.67;100.00;93897.47;4952309;28;1463;-74
2023/11/05 04:16:12;;;;;;;;;;;9.20;99.90;;;8.76;100.00;93899.19;4967444;28;1461;-74
2023/11/05 04:18:41;;;;;;;;;;;9.30;99.90;;;8.85;100.00;93924.19;4967325;28;1478;-73
2023/11/05 04:21:08;;;;;;;;;;;9.30;99.90;;;8.90;100.00;93921.16;4963118;28;1561;-72
2023/11/05 04:23:35;;;;;;;;;;;9.40;99.90;;;8.85;100.00;93918.19;4966290;28;1899;-74
2023/11/05 04:26:03;;;;;;;;;;;9.40;99.90;;;8.92;100.00;93898.56;4964936;28;1798;-74
2023/11/05 04:28:30;;;;;;;;;;;9.40;99.90;;;8.97;100.00;93893.75;4961815;28;1566;-73
2023/11/05 04:30:58;;;;;;;;;;;9.40;99.90;;;9.02;100.00;93893.31;4967840;28;1598;-73
2023/11/05 04:33:25;;;;;;;;;;;9.40;99.90;;;8.90;100.00;93878.00;4965471;28;1613;-73
2023/11/05 04:35:52;;;;;;;;;;;9.40;99.90;;;8.99;100.00;93908.19;4967090;28;1559;-74
2023/11/05 04:38:19;;;;;;;;;;;9.50;99.90;;;8.96;100.00;93879.19;4967590;28;1672;-73
2023/11/05 04:40:46;;;;;;;;;;;9.50;99.90;;;9.07;100.00;93897.09;4963933;28;1570;-74
2023/11/05 04:43:14;;;;;;;;;;;9.50;99.90;;;9.13;100.00;93916.41;4963425;28;1685;-74
2023/11/05 04:45:41;;;;;;;;;;;9.60;99.90;;;9.06;100.00;93876.56;4967084;28;2444;-74
2023/11/05 04:48:10;;;;;;;;;;;9.60;99.90;;;8.96;100.00;93900.72;4964143;28;1661;-72
2023/11/05 04:50:37;;;;;;;;;;;9.50;99.90;;;9.18;100.00;93896.88;4962862;28;1627;-74
2023/11/05 04:53:04;;;;;;;;;;;9.60;99.90;;;9.13;100.00;93911.22;4966930;28;1415;-74
2023/11/05 04:55:31;;;;;;;;;;;9.50;99.90;;;9.04;100.00;93894.00;4967262;28;1522;-73
2023/11/05 04:57:58;;;;;;;;;;;9.60;99.90;;;9.05;100.00;93899.00;4967975;28;1487;-73
2023/11/05 05:00:25;;;;;;;;;;;9.60;99.90;;;8.98;100.00;93909.13;4976991;28;1463;-74
2023/11/05 05:02:52;;;;;;;;;;;9.60;99.90;;;9.03;100.00;93897.53;4966547;28;1520;-74
2023/11/05 05:05:19;;;;;;;;;;;9.60;99.90;;;9.12;100.00;93896.66;4968153;28;2035;-74
2023/11/05 05:07:46;;;;;;;;;;;9.50;99.90;;;9.14;100.00;93887.78;4979506;28;1411;-74
2023/11/05 05:10:13;;;;;;;;;;;9.70;99.90;;;9.11;100.00;93895.03;4981869;28;1575;-74
2023/11/05 05:12:40;;;;;;;;;;;9.70;99.90;;;9.11;100.00;93906.19;4966061;28;1439;-74
2023/11/05 05:15:08;;;;;;;;;;;9.60;99.90;;;9.19;100.00;93890.75;4966761;28;1505;-74
2023/11/05 05:17:35;;;;;;;;;;;9.70;99.90;;;9.21;100.00;93891.44;4978636;28;1473;-74
2023/11/05 05:20:04;;;;;;;;;;;9.70;99.90;;;9.05;100.00;93880.91;4968106;28;1501;-74
2023/11/05 05:22:31;;;;;;;;;;;9.70;99.90;;;9.12;100.00;93892.31;4965172;28;1588;-73
2023/11/05 05:24:57;;;;;;;;;;;9.70;99.90;;;9.13;100.00;93880.97;4949573;28;1923;-73
2023/11/05 05:27:25;;;;;;;;;;;9.70;99.90;;;9.14;100.00;93885.19;4964025;28;1414;-74
2023/11/05 05:29:52;;;;;;;;;;;9.70;99.90;;;9.20;100.00;93888.97;4964316;28;1589;-74
2023/11/05 05:32:19;;;;;;;;;;;9.80;99.90;;;9.22;100.00;93881.88;4965480;28;1520;-73
2023/11/05 05:34:46;;;;;;;;;;;9.70;99.90;;;9.14;100.00;93903.28;4966115;28;1748;-74
2023/11/05 05:37:15;;;;;;;;;;;9.70;99.90;;;9.22;100.00;93905.16;4950373;28;1615;-74
2023/11/05 05:39:42;;;;;;;;;;;9.70;99.90;;;9.09;100.00;93894.38;4949265;28;1672;-74
2023/11/05 05:42:09;;;;;;;;;;;9.70;99.90;;;9.03;100.00;93895.75;4964709;28;1621;-74
2023/11/05 05:44:38;;;;;;;;;;;9.60;99.90;;;9.02;100.00;93934.72;4965278;28;1992;-74
2023/11/05 05:47:04;;;;;;;;;;;9.60;99.90;;;8.87;100.00;93929.19;4964680;28;1558;-74
2023/11/05 05:49:31;;;;;;;;;;;9.50;99.90;;;8.79;100.00;93919.59;4966397;28;1574;-74
2023/11/05 05:51:59;;;;;;;;;;;9.40;99.90;;;8.74;100.00;93952.81;4963967;28;1483;-73
2023/11/05 05:54:26;;;;;;;;;;;9.30;99.90;;;8.73;100.00;93953.75;4967014;28;1453;-73
2023/11/05 05:56:53;;;;;;;;;;;9.20;99.90;;;8.68;100.00;93940.47;4966861;28;1492;-74
2023/11/05 05:59:20;;;;;;;;;;;9.20;99.90;;;8.59;100.00;93973.16;4966958;28;1482;-74
2023/11/05 06:01:47;;;;;;;;;;;9.20;99.90;;;8.56;100.00;93950.97;4978609;28;1541;-73
2023/11/05 06:04:14;;;;;;;;;;;9.20;99.90;;;8.55;100.00;93945.94;4966855;28;1906;-74
2023/11/05 06:06:42;;;;;;;;;;;9.20;99.90;;;8.53;100.00;93935.78;4962539;28;1549;-73
2023/11/05 06:09:12;;;;;;;;;;;9.20;99.90;;;8.61;100.00;93942.00;4966402;28;1622;-73
2023/11/05 06:11:39;;;;;;;;;;;9.20;99.90;;;8.54;100.00;93915.91;4963060;28;1691;-73
2023/11/05 06:14:06;;;;;;;;;;;9.20;99.90;;;8.50;100.00;93961.88;4967775;28;1958;-73
2023/11/05 06:16:33;;;;;;;;;;;9.10;99.90;;;8.50;100.00;93932.63;4983219;28;1516;-73
2023/11/05 06:19:00;;;;;;;;;;;9.10;99.90;;;8.46;100.00;93951.97;4968303;28;1607;-73
2023/11/05 06:21:27;;;;;;;;;;;9.10;99.90;;;8.44;100.00;93956.47;4969744;28;1629;-72
2023/11/05 06:23:54;;;;;;;;;;;9.00;99.90;;;8.35;100.00;93951.16;4968178;28;1581;-73
2023/11/05 06:26:21;;;;;;;;;;;9.00;99.90;;;8.40;100.00;93944.78;4968737;28;1911;-73
2023/11/05 06:28:48;;;;;;;;;;;9.00;99.90;;;8.34;100.00;93952.09;4968765;28;1557;-73
2023/11/05 06:31:16;;;;;;;;;;;9.00;99.90;;;8.38;100.00;93958.63;4966826;28;1859;-73
2023/11/05 06:33:43;;;;;;;;;;;8.90;99.90;;;8.41;100.00;93985.97;4964185;28;1554;-72
2023/11/05 06:36:10;;;;;;;;;;;9.00;99.90;;;8.40;100.00;93978.34;4966712;28;1587;-71
2023/11/05 06:38:37;;;;;;;;;;;9.00;99.90;;;8.35;100.00;93952.94;4965246;28;1551;-73
2023/11/05 06:41:04;;;;;;;;;;;9.00;99.90;;;8.49;100.00;93949.94;4969669;28;1539;-73
2023/11/05 06:43:31;;;;;;;;;;;9.10;99.90;;;8.56;100.00;93984.59;4953875;28;1335;-73
2023/11/05 06:45:58;;;;;;;;;;;9.10;99.90;;;8.61;100.00;93993.69;4952867;28;1899;-72
2023/11/05 06:48:25;;;;;;;;;;;9.10;99.90;;;8.56;100.00;93997.50;4969552;28;1569;-73
2023/11/05 06:50:52;;;;;;;;;;;9.10;99.90;;;8.61;100.00;93978.19;4969270;28;1526;-73
2023/11/05 06:53:20;;;;;;;;;;;9.10;99.90;;;8.64;100.00;93999.38;4968001;28;1785;-73
2023/11/05 06:55:48;;;;;;;;;;;9.20;99.90;;;8.64;100.00;94014.09;4967434;28;1621;-73
2023/11/05 06:58:17;;;;;;;;;;;9.20;99.90;;;8.64;100.00;93942.50;4968941;28;1594;-73
2023/11/05 07:00:45;;;;;;;;;;;9.20;99.90;;;8.63;100.00;94008.09;4967233;28;1661;-73
2023/11/05 07:03:12;;;;;;;;;;;9.30;99.90;;;8.70;100.00;94031.63;4967807;28;1550;-73
2023/11/05 07:05:39;;;;;;;;;;;9.20;99.90;;;8.73;100.00;93995.94;4968341;28;1985;-73
2023/11/05 07:08:07;;;;;;;;;;;9.30;99.90;;;8.64;100.00;93999.38;4964499;28;1380;-73
2023/11/05 07:10:33;;;;;;;;;;;9.30;99.90;;;8.73;100.00;93997.72;4967437;28;1770;-73
2023/11/05 07:13:00;;;;;;;;;;;9.30;99.90;;;8.81;100.00;94023.69;4968117;28;1757;-73
2023/11/05 07:15:27;;;;;;;;;;;9.30;99.90;;;8.75;100.00;94017.31;4966407;28;1706;-74
2023/11/05 07:17:54;;;;;;;;;;;9.30;99.90;;;8.73;100.00;94024.38;4967165;28;1601;-74
2023/11/05 07:20:22;;;;;;;;;;;9.40;99.90;;;8.85;100.00;94021.63;4963885;28;1784;-73
2023/11/05 07:22:49;;;;;;;;;;;9.30;99.90;;;8.88;100.00;94050.63;4967338;28;1534;-74
2023/11/05 07:25:17;;;;;;;;;;;9.40;99.90;;;8.76;100.00;94049.16;4961336;28;1976;-74
2023/11/05 07:27:44;;;;;;;;;;;9.30;99.90;;;8.82;100.00;94034.84;4968058;28;1610;-74
2023/11/05 07:30:13;;;;;;;;;;;9.40;99.90;;;8.78;100.00;94045.47;4968279;28;1623;-74
2023/11/05 07:32:42;;;;;;;;;;;9.40;99.90;;;8.79;100.00;94031.59;4963458;28;1653;-74
2023/11/05 07:35:09;;;;;;;;;;;9.40;99.90;;;8.71;100.00;94044.41;4966767;28;1699;-73
2023/11/05 07:37:36;;;;;;;;;;;9.30;99.90;;;8.79;100.00;94048.88;4965068;28;2167;-73
2023/11/05 07:40:06;;;;;;;;;;;9.30;99.90;;;8.58;100.00;94067.97;4956341;28;1535;-74
2023/11/05 07:42:36;;;;;;;;;;;9.20;99.90;;;8.59;100.00;94094.63;4968408;28;1593;-74
2023/11/05 07:45:06;;;;;;;;;;;9.20;99.90;;;8.67;100.00;94087.00;4967756;28;1991;-74
2023/11/05 07:47:33;;;;;;;;;;;9.20;99.90;;;8.58;100.00;94090.44;4968352;28;1665;-74
2023/11/05 07:50:00;;;;;;;;;;;9.10;99.90;;;8.56;100.00;94108.66;4965320;28;1558;-73
2023/11/05 07:52:29;;;;;;;;;;;9.20;99.90;;;8.61;100.00;94113.41;4967362;28;1419;-74
2023/11/05 07:54:57;;;;;;;;;;;9.20;99.90;;;8.64;100.00;94102.78;4963774;28;1198;-74
2023/11/05 07:57:26;;;;;;;;;;;9.20;99.90;;;8.64;100.00;94096.81;4965513;28;1149;-73
2023/11/05 07:59:53;;;;;;;;;;;9.20;99.90;;;8.72;100.00;94133.13;4965312;28;1198;-74
2023/11/05 08:02:20;;;;;;;;;;;9.30;99.90;;;8.67;100.00;94125.00;4968238;28;1418;-73
2023/11/05 08:04:47;;;;;;;;;;;9.30;99.90;;;8.71;100.00;94131.50;4977095;28;1910;-74
2023/11/05 08:07:15;;;;;;;;;;;9.20;99.90;;;8.62;100.00;94114.22;4979727;28;1533;-73
2023/11/05 08:09:42;;;;;;;;;;;9.30;99.90;;;8.65;100.00;94132.88;4983599;28;1512;-74
2023/11/05 08:12:09;;;;;;;;;;;9.20;99.90;;;8.70;100.00;94145.38;4981370;28;1568;-73
2023/11/05 08:14:36;;;;;;;;;;;9.20;99.90;;;8.74;100.00;94141.56;4969380;28;1562;-74
2023/11/05 08:17:03;;;;;;;;;;;9.20;99.90;;;8.71;100.00;94134.06;4968840;28;1647;-73
2023/11/05 08:19:30;;;;;;;;;;;9.20;99.90;;;8.77;100.00;94147.28;4961705;28;4468;-74
2023/11/05 08:21:57;;;;;;;;;;;9.20;99.90;;;8.83;100.00;94153.66;4966784;28;1808;-73
2023/11/05 08:24:24;;;;;;;;;;;9.20;99.90;;;8.72;100.00;94152.03;4967228;28;1459;-74
2023/11/05 08:26:51;;;;;;;;;;;9.30;99.90;;;8.83;100.00;94152.88;4964778;28;1914;-74
2023/11/05 08:29:18;;;;;;;;;;;9.40;99.90;;;8.78;100.00;94159.25;4968354;28;1578;-74
2023/11/05 08:31:46;;;;;;;;;;;9.30;99.90;;;8.84;100.00;94157.06;4980702;28;1549;-74
2023/11/05 08:34:14;;;;;;;;;;;9.30;99.90;;;8.99;100.00;94155.69;4968221;28;1546;-73
2023/11/05 08:36:41;;;;;;;;;;;9.50;99.90;;;8.93;100.00;94179.50;4965456;28;1572;-72
2023/11/05 08:39:08;;;;;;;;;;;9.50;99.90;;;8.92;100.00;94167.56;4965455;28;1819;-74
2023/11/05 08:41:35;;;;;;;;;;;9.50;99.90;;;8.96;100.00;94185.25;4967872;28;1710;-74
2023/11/05 08:44:04;;;;;;;;;;;9.50;99.90;;;9.06;100.00;94207.69;4976050;28;1538;-72
2023/11/05 08:46:31;;;;;;;;;;;9.50;99.90;;;8.99;100.00;94203.06;4962545;28;1988;-73
2023/11/05 08:48:59;;;;;;;;;;;9.50;99.90;;;8.98;100.00;94198.00;4966110;28;1566;-74
2023/11/05 08:51:27;;;;;;;;;;;9.50;99.90;;;8.95;100.00;94209.47;4969660;28;1577;-73
2023/11/05 08:53:54;;;;;;;;;;;9.50;99.90;;;8.93;100.00;94231.25;4966231;28;1358;-72
2023/11/05 08:56:22;;;;;;;;;;;9.50;99.90;;;9.00;100.00;94222.78;4968770;28;4547;-73
2023/11/05 08:58:49;;;;;;;;;;;9.50;99.90;;;9.01;100.00;94210.69;4984394;28;1639;-74
2023/11/05 09:01:16;;;;;;;;;;;9.50;99.90;;;9.10;100.00;94235.72;5000400;28;1511;-73
2023/11/05 09:03:45;;;;;;;;;;;9.50;99.90;;;9.16;100.00;94221.41;4970270;28;1569;-73
2023/11/05 09:06:13;;;;;;;;;;;9.60;99.90;;;9.28;100.00;94251.34;4986903;28;1903;-73
2023/11/05 09:08:40;;;;;;;;;;;9.60;99.90;;;9.21;100.00;94238.16;4984163;28;1548;-73
2023/11/05 09:11:09;;;;;;;;;;;9.70;99.90;;;9.26;100.00;94253.28;4969790;28;1503;-73
2023/11/05 09:13:36;;;;;;;;;;;9.70;99.90;;;9.21;100.00;94256.28;4961070;28;1776;-73
2023/11/05 09:16:06;;;;;;;;;;;9.70;99.90;;;9.08;100.00;94260.91;4981659;28;1579;-73
2023/11/05 09:18:33;;;;;;;;;;;9.60;99.90;;;9.01;100.00;94267.59;4998482;28;1064;-73
2023/11/05 09:21:00;;;;;;;;;;;9.60;99.90;;;9.03;100.00;94264.84;4983403;28;1605;-74
2023/11/05 09:23:27;;;;;;;;;;;9.50;99.90;;;9.06;100.00;94280.94;4998526;28;1523;-73
2023/11/05 09:25:55;;;;;;;;;;;9.60;99.90;;;9.09;100.00;94288.41;4982019;28;1887;-73
2023/11/05 09:28:22;;;;;;;;;;;9.60;99.90;;;9.09;100.00;94295.38;4982408;28;1033;-73
2023/11/05 09:30:49;;;;;;;;;;;9.60;99.90;;;9.03;100.00;94288.94;4998722;28;1562;-73
2023/11/05 09:33:20;;;;;;;;;;;9.60;99.90;;;9.24;100.00;94306.94;4971448;28;1577;-73
2023/11/05 09:35:48;;;;;;;;;;;9.70;99.90;;;9.28;100.00;94321.22;4984448;28;1604;-73
2023/11/05 09:38:15;;;;;;;;;;;9.70;99.90;;;9.13;100.00;94315.66;4983318;28;2120;-73
2023/11/05 09:40:42;;;;;;;;;;;9.70;99.90;;;9.22;100.00;94324.38;4981141;28;1571;-73
2023/11/05 09:43:10;;;;;;;;;;;9.70;99.90;;;9.10;100.00;94312.50;4979857;28;1523;-73
2023/11/05 09:45:37;;;;;;;;;;;9.70;99.90;;;9.19;100.00;94384.13;4964281;28;1915;-73
2023/11/05 09:48:08;;;;;;;;;;;9.70;99.90;;;9.18;100.00;94370.38;4975369;28;1496;-72
2023/11/05 09:50:41;;;;;;;;;;;9.70;99.90;;;9.28;100.00;94361.81;4973697;28;1383;-74
2023/11/05 09:53:14;;;;;;;;;;;9.80;99.90;;;9.34;100.00;94377.63;4973666;28;1460;-73
2023/11/05 09:55:44;;;;;;;;;;;9.80;99.90;;;9.29;100.00;94402.28;4969235;28;1418;-71
2023/11/05 09:58:14;;;;;;;;;;;9.80;99.90;;;9.43;100.00;94376.78;4973318;28;1015;-73
2023/11/05 10:00:41;;;;;;;;;;;9.80;99.90;;;9.45;100.00;94366.31;4955925;28;1414;-72
2023/11/05 10:03:12;;;;;;;;;;;9.90;99.90;;;9.40;100.00;94377.06;4975635;28;1081;-74
2023/11/05 10:05:47;;;;;;;;;;;9.90;99.90;;;9.35;100.00;94389.63;4972795;28;1979;-74
2023/11/05 10:08:14;;;;;;;;;;;9.90;99.90;;;9.28;100.00;94404.03;4971030;28;1125;-73
2023/11/05 10:10:43;;;;;;;;;;;9.80;99.90;;;9.25;100.00;94388.78;4970158;28;1320;-74
2023/11/05 10:13:15;;;;;;;;;;;9.90;99.90;;;9.31;100.00;94410.72;4970900;28;1203;-71
2023/11/05 10:15:45;;;;;;;;;;;9.80;99.90;;;9.38;100.00;94419.59;4970416;28;1614;-74
2023/11/05 10:18:17;;;;;;;;;;;9.80;99.90;;;9.42;100.00;94405.44;4974051;28;1813;-72
2023/11/05 10:20:47;;;;;;;;;;;9.90;99.90;;;9.32;100.00;94420.13;4964492;28;1556;-74
2023/11/05 10:23:15;;;;;;;;;;;9.90;99.90;;;9.32;100.00;94420.13;4990786;28;1603;-73
2023/11/05 10:25:50;;;;;;;;;;;9.90;99.90;;;9.34;100.00;94437.16;4985601;28;1949;-74
2023/11/05 10:28:22;;;;;;;;;;;9.80;99.90;;;9.45;100.00;94443.97;4988034;28;1466;-74
2023/11/05 10:30:52;;;;;;;;;;;9.90;99.90;;;9.35;100.00;94456.91;5003028;28;1479;-73
2023/11/05 10:33:24;;;;;;;;;;;9.80;99.90;;;9.24;100.00;94557.13;4984832;28;1462;-74
2023/11/05 10:35:51;;;;;;;;;;;9.80;99.90;;;9.33;100.00;94460.59;4984363;28;1613;-73
2023/11/05 10:38:18;;;;;;;;;;;9.80;99.90;;;9.41;100.00;94515.91;4990436;28;1413;-74
2023/11/05 10:40:47;;;;;;;;;;;9.90;99.90;;;9.56;100.00;94481.88;4971567;28;1407;-71
2023/11/05 10:43:15;;;;;;;;;;;10.00;99.90;;;9.64;100.00;94484.59;4989533;28;1448;-73
2023/11/05 10:45:42;;;;;;;;;;;10.00;99.90;;;9.77;100.00;94479.97;4987896;28;1991;-73
2023/11/05 10:48:10;;;;;;;;;;;10.20;99.90;;;9.79;100.00;94479.84;4985226;28;1380;-73
2023/11/05 10:50:38;;;;;;;;;;;10.30;99.90;;;9.81;100.00;94496.06;4988610;28;1524;-74
2023/11/05 10:53:06;;;;;;;;;;;10.30;99.90;;;9.77;100.00;94505.06;4983641;28;1684;-72
2023/11/05 10:55:37;;;;;;;;;;;10.30;99.90;;;9.69;100.00;94516.06;4988906;28;1434;-73
2023/11/05 10:58:09;;;;;;;;;;;10.30;99.90;;;9.84;100.00;94517.31;4985882;28;1504;-72
2023/11/05 11:00:51;;;;;;;;;;;10.30;99.90;;;9.74;100.00;94524.28;4972764;28;2055;-73
2023/11/05 11:03:19;;;;;;;;;;;10.30;99.90;;;9.69;100.00;94503.13;4998491;28;1409;-73
2023/11/05 11:05:46;;;;;;;;;;;10.30;99.90;;;9.80;100.00;94526.31;4987037;28;1926;-72
2023/11/05 11:08:15;;;;;;;;;;;10.30;99.90;;;9.80;100.00;94564.34;4988111;28;938;-73
2023/11/05 11:10:45;;;;;;;;;;;10.20;99.90;;;9.74;100.00;94532.06;4970169;28;1419;-74
2023/11/05 11:13:15;;;;;;;;;;;10.30;99.90;;;9.81;100.00;94532.31;4988220;28;1374;-73
2023/11/05 11:15:53;;;;;;;;;;;10.30;99.90;;;9.71;100.00;94553.03;4988371;28;1389;-74
2023/11/05 11:18:26;;;;;;;;;;;10.20;99.90;;;9.68;100.00;94558.47;4987088;28;1077;-74
2023/11/05 11:20:57;;;;;;;;;;;10.20;99.90;;;9.74;100.00;94547.59;4984978;28;1584;-74
2023/11/05 11:23:26;;;;;;;;;;;10.30;99.90;;;9.84;100.00;94576.91;4984716;28;1473;-74
2023/11/05 11:26:01;;;;;;;;;;;10.30;99.90;;;9.90;100.00;94556.56;4987925;28;1989;-74
2023/11/05 11:28:29;;;;;;;;;;;10.30;99.90;;;10.17;100.00;94587.00;4987484;28;1470;-74
2023/11/05 11:30:57;;;;;;;;;;;10.40;99.90;;;10.18;100.00;94596.44;4987049;28;1558;-74
2023/11/05 11:33:24;;;;;;;;;;;10.50;99.90;;;10.22;100.00;94572.69;4996544;28;1418;-74